AirNav   TITAN Aviation Fuels
 
 1595 users online  

FL30 HCA New Port Richey Hospital Heliport
New Port Richey, Florida, USA

GOING TO NEW PORT RICHEY?


FAA INFORMATION EFFECTIVE 15 JULY 2021

Location

FAA Identifier: FL30
Lat/Long: 28-14-06.5700N 082-43-20.5000W
28-14.109500N 082-43.341667W
28.2351583,-82.7223611
(estimated)
Elevation: 25 ft. / 8 m (estimated)
Variation: 02W (1985)
From city: 1 mile S of NEW PORT RICHEY, FL
Time zone: UTC -4 (UTC -5 during Standard Time)
Zip code: 34652

Heliport Operations

Heliport use: Private use, MEDICAL
Activation date: 01/1990
Control tower: no
ARTCC: MIAMI CENTER
FSS: SAINT PETERSBURG FLIGHT SERVICE STATION
Attendance: CONTINUOUS
Wind indicator: yes
Segmented circle: no
Lights: SS-SR

Heliport Communications

WX AWOS-3P at CLW (16 nm S): 119.225 (727-449-2184)
WX ASOS at TPA (19 nm SE): 126.45 (813-873-7228)
WX ASOS at PIE (20 nm S): 134.5 (727-531-3456)

Nearby radio navigation aids

VOR radial/distance  VOR name  Freq  Var
PIEr359/19.7ST PETERSBURG VORTAC116.4005W

 
NDB name  Hdg/Dist  Freq  Var  ID
COSME316/13.836805WTP - .--.
CAPOK001/14.436005WPI .--. ..

Heliport Services

Runway Information

Helipad H1

Dimensions: 60 x 60 ft. / 18 x 18 m
Surface: concrete, in good condition
Runway edge lights: FLD
Latitude: 28-14.109500N
Longitude: 082-43.341667W
Elevation: 25.0 ft.
Traffic pattern: leftleft

Heliport Ownership and Management from official FAA records

Ownership: Privately-owned
Owner: HCA NEW PORT RICHEY HOSPITAL
5637 MARINE PKWY PO BOX 996
NEW PORT RICHEY, FL 34656
Phone 813-848-1733
Manager: ANDREW ORAVEC, JR ADM
5637 MARINE PKWY PO BOX 996
NEW PORT RICHEY, FL 34656
Phone 813-848-1733
ADDITIONAL CONTACT: DEVIN SOMMISE 9330 STATE RD 54 TRINITY, FL 34655 727-834-4838

Additional Remarks

A52-H1 30' SCHOOL 2000' E; 175' TWR 900' E; 50' BLDG 200' E 14' BLDG 175' SW; 190'TWR 3000' S.
FOR CD CTC TAMPA APCH AT 813-878-2528

Instrument Procedures

There are no published instrument procedures at FL30.

Some nearby airports with instrument procedures:

KCLW - Clearwater Air Park (16 nm S)
KTPA - Tampa International Airport (19 nm SE)
KPIE - St Pete-Clearwater International Airport (20 nm S)
KBKV - Brooksville-Tampa Bay Regional Airport (20 nm NE)
KVDF - Tampa Executive Airport (24 nm SE)
 
Loc | Ops | Rwys | IFR | FBO | Links
Com | Nav | Svcs | Stats | Notes


 
Area around FL30 (HCA New Port Richey Hospital Heliport)
 
Road maps at: MapQuest Bing Google
 
Aerial photo
No photo
 
Sectional chart

 
Airport distance calculator
Flying to HCA New Port Richey Hospital Heliport? Find the distance to fly.

From to FL30

Sunrise and sunset
Times for 26-Jul-2021
 Local
(UTC-4)
 Zulu
(UTC)
Morning civil twilight06:2510:25
Sunrise06:5110:51
Sunset20:2400:24
Evening civil twilight20:5000:50

Current date and time
Zulu (UTC)  26-Jul-2021 19:42:01
Local (UTC-4)  26-Jul-2021 15:42:01
 
METAR
KCLW 
16nm S 
261915Z AUTO 34008G14KT 10SM CLR 32/19 A2993 RMK AO2
KTPA 
19nm SE 
261853Z 35008KT 290V010 10SM FEW035TCU SCT065 SCT300 36/20 A2993 RMK AO2 LTG DSNT SE SLP133 CB DSNT SE-S TCU SE T03560200
KPIE 
19nm S 
261853Z AUTO 33009KT 10SM FEW090 34/19 A2993 RMK AO2 SLP134 T03440194
KBKV 
20nm NE 
261853Z 09004KT 10SM BKN044 OVC060 32/21 A2994 RMK AO2 SLP135 T03170211
KVDF 
24nm SE 
261915Z AUTO 02003KT 10SM CLR 36/21 A2992 RMK AO2
KTPF 
24nm SE 
261915Z AUTO 00000KT 10SM SCT060 SCT070 BKN090 35/20 A2992 RMK AO2
KMCF 
26nm SE 
261921Z AUTO 29006KT 10SM FEW120 FEW160 SCT200 32/16 A2989 RMK AO2 DZB13E21DZB21 SLP124 FZRANO $
KSPG 
29nm S 
261853Z 24005KT 10SM SCT055 OVC070 29/23 A2992 RMK AO2 RAB23E52 SLP130 P0001 T02940233
KZPH 
30nm E 
261915Z AUTO 10SM SCT050 35/21 A2993 RMK A02 LTG DSNT S T03460212
TAF
KTPA 
19nm SE 
261720Z 2618/2724 25007KT P6SM VCTS BKN040CB BKN250 TEMPO 2618/2622 VRB15G25KT 3SM TSRA BKN025CB FM262200 28007KT P6SM VCTS BKN050CB BKN100 FM270200 VRB03KT P6SM VCSH SCT040 SCT100 BKN250 FM270400 17003KT P6SM FEW040 SCT100 BKN250 FM271500 21005KT P6SM VCSH SCT030 BKN100 FM271800 23008KT P6SM VCTS BKN040CB BKN100
KPIE 
19nm S 
261720Z 2618/2718 06006KT P6SM VCTS BKN040CB BKN250 TEMPO 2618/2621 VRB15G25KT 3SM TSRA BKN025CB FM262100 30008KT P6SM VCTS BKN050CB BKN100 FM270200 VRB04KT P6SM VCSH SCT040 SCT100 BKN250 FM270400 16004KT P6SM FEW040 SCT100 BKN250 FM271500 19006KT P6SM VCSH SCT030 BKN100
NOTAMs
Click for the latest NOTAMs
NOTAMs are issued by the DoD/FAA and will open in a separate window not controlled by AirNav.

 

 
 

Would you like to see your business listed on this page?

 If your business provides an interesting product or service to pilots, flight crews, aircraft, or users of the HCA New Port Richey Hospital Heliport, you should consider listing it here.  To start the listing process, click on the button below
 
Add a business
 

Other Pages about HCA New Port Richey Hospital Heliport

Update a link
 
Copyright © AirNav, LLC. All rights reserved. Privacy Policy  Contact